createdAt,value
2022-12-22T00:02:36.878Z,3.08
2022-12-22T00:05:31.272Z,3.75
2022-12-22T00:08:17.378Z,3.50
2022-12-22T00:11:03.536Z,2.72
2022-12-22T00:13:49.487Z,2.83
2022-12-22T00:16:35.501Z,2.70
2022-12-22T00:19:21.166Z,3.58
2022-12-22T00:22:07.156Z,3.15
2022-12-22T00:24:53.210Z,2.58
2022-12-22T00:27:45.951Z,2.80
2022-12-22T00:30:32.760Z,2.30
2022-12-22T00:33:19.114Z,2.35
2022-12-22T00:36:05.266Z,2.88
2022-12-22T00:38:51.132Z,3.28
2022-12-22T00:41:37.091Z,4.50
2022-12-22T00:44:22.983Z,2.83
2022-12-22T00:47:08.932Z,2.70
2022-12-22T00:49:55.410Z,2.28
2022-12-22T00:52:42.515Z,2.70
2022-12-22T00:55:39.766Z,2.28
2022-12-22T00:58:31.512Z,1.58
2022-12-22T01:01:17.614Z,1.83
2022-12-22T01:04:03.483Z,3.70
2022-12-22T01:06:50.195Z,2.90
2022-12-22T01:09:36.490Z,3.10
2022-12-22T01:12:37.281Z,2.28
2022-12-22T01:15:23.822Z,1.80
2022-12-22T01:18:09.777Z,2.05
2022-12-22T01:20:55.957Z,2.63
2022-12-22T01:23:42.018Z,1.58
2022-12-22T01:26:30.410Z,2.45
2022-12-22T01:29:16.538Z,2.50
2022-12-22T01:32:02.609Z,2.55
2022-12-22T01:34:48.601Z,3.67
2022-12-22T01:37:34.715Z,1.80
2022-12-22T01:40:20.609Z,2.08
2022-12-22T01:43:06.596Z,2.08
2022-12-22T01:45:53.650Z,2.70
2022-12-22T01:48:40.769Z,2.53
2022-12-22T01:51:32.135Z,1.85
2022-12-22T01:54:18.324Z,2.22
2022-12-22T01:57:05.392Z,2.72
2022-12-22T01:59:51.337Z,2.33
2022-12-22T02:02:38.202Z,3.13
2022-12-22T02:05:26.045Z,1.85
2022-12-22T02:08:11.873Z,3.22
2022-12-22T02:10:57.865Z,2.03
2022-12-22T02:13:57.114Z,2.35
2022-12-22T02:16:48.608Z,2.15
2022-12-22T02:19:34.483Z,2.88
2022-12-22T02:22:38.301Z,2.03
2022-12-22T02:25:27.612Z,2.63
2022-12-22T02:28:14.008Z,1.27
2022-12-22T02:31:00.820Z,1.58
2022-12-22T02:33:46.701Z,2.65
2022-12-22T02:36:41.391Z,2.13
2022-12-22T02:39:29.762Z,1.23
2022-12-22T02:42:24.390Z,1.67
2022-12-22T02:45:33.021Z,1.42
2022-12-22T02:48:23.738Z,1.50
2022-12-22T02:51:13.352Z,1.65
2022-12-22T02:53:59.869Z,1.27
2022-12-22T02:56:46.038Z,1.85
2022-12-22T02:59:32.589Z,1.67
2022-12-22T03:02:18.717Z,1.83
2022-12-22T03:05:04.762Z,2.47
2022-12-22T03:07:50.451Z,1.92
2022-12-22T03:10:36.543Z,3.42
2022-12-22T03:13:22.592Z,1.77
2022-12-22T03:16:08.698Z,1.70
2022-12-22T03:18:54.424Z,2.03
2022-12-22T03:21:40.235Z,1.98
2022-12-22T03:24:26.105Z,1.77
2022-12-22T03:26:53.356Z,1.20
2022-12-22T03:29:20.725Z,1.55
2022-12-22T03:31:47.870Z,1.30
2022-12-22T03:34:15.068Z,1.25
2022-12-22T03:36:42.208Z,1.73
2022-12-22T03:39:09.965Z,1.95
2022-12-22T03:41:55.619Z,1.30
2022-12-22T03:44:41.711Z,1.42
2022-12-22T03:47:08.911Z,1.77
2022-12-22T03:49:36.109Z,1.88
2022-12-22T03:52:03.228Z,3.22
2022-12-22T03:54:30.344Z,2.70
2022-12-22T03:56:57.479Z,2.65
2022-12-22T03:59:24.618Z,2.03
2022-12-22T04:01:53.700Z,1.92
2022-12-22T04:04:22.939Z,3.88
2022-12-22T04:06:50.185Z,2.15
2022-12-22T04:09:17.610Z,1.15
2022-12-22T04:12:03.290Z,2.63
2022-12-22T04:14:34.210Z,1.33
2022-12-22T04:17:02.728Z,1.67
2022-12-22T04:19:29.994Z,1.77
2022-12-22T04:21:57.249Z,6.25
2022-12-22T04:24:24.397Z,1.52
2022-12-22T04:26:52.245Z,3.45
2022-12-22T04:29:19.362Z,1.23
2022-12-22T04:31:46.595Z,1.45
2022-12-22T04:34:13.739Z,1.85
2022-12-22T04:36:40.859Z,3.08
2022-12-22T04:39:08.008Z,2.10
2022-12-22T04:41:35.126Z,1.42
2022-12-22T04:44:02.340Z,2.05
2022-12-22T04:46:29.630Z,2.17
2022-12-22T04:49:00.212Z,1.65
2022-12-22T04:51:28.545Z,2.25
2022-12-22T04:53:55.738Z,3.80
2022-12-22T04:56:22.869Z,2.42
2022-12-22T04:58:50.104Z,1.70
2022-12-22T05:01:18.363Z,2.25
2022-12-22T05:03:46.180Z,2.28
2022-12-22T05:06:13.476Z,6.55
2022-12-22T05:08:40.695Z,2.20
2022-12-22T05:11:08.246Z,2.70
2022-12-22T05:13:35.436Z,2.72
2022-12-22T05:16:06.854Z,2.42
2022-12-22T05:18:34.871Z,1.45
2022-12-22T05:21:07.126Z,3.00
2022-12-22T05:23:34.367Z,1.65
2022-12-22T05:26:01.685Z,1.70
2022-12-22T05:28:28.875Z,2.17
2022-12-22T05:30:56.382Z,2.45
2022-12-22T05:33:23.647Z,2.20
2022-12-22T05:35:50.858Z,2.03
2022-12-22T05:38:18.013Z,1.63
2022-12-22T05:40:45.161Z,1.50
2022-12-22T05:43:12.343Z,2.00
2022-12-22T05:45:39.557Z,2.33
2022-12-22T05:48:07.028Z,5.07
2022-12-22T05:50:34.169Z,3.85
2022-12-22T05:53:01.829Z,2.22
2022-12-22T05:55:29.024Z,4.35
2022-12-22T05:57:56.174Z,3.03
2022-12-22T06:00:23.560Z,1.75
2022-12-22T06:02:50.827Z,1.45
2022-12-22T06:05:18.056Z,2.88
2022-12-22T06:07:45.186Z,1.83
2022-12-22T06:10:13.170Z,2.72
2022-12-22T06:12:40.984Z,3.00
2022-12-22T06:15:08.854Z,3.03
2022-12-22T06:17:43.765Z,1.35
2022-12-22T06:20:11.918Z,1.65
2022-12-22T06:22:39.062Z,2.40
2022-12-22T06:25:06.661Z,1.40
2022-12-22T06:27:34.014Z,2.20
2022-12-22T06:30:01.182Z,1.55
2022-12-22T06:32:28.369Z,3.78
2022-12-22T06:34:55.497Z,3.20
2022-12-22T06:37:22.671Z,2.80
2022-12-22T06:39:49.862Z,1.50
2022-12-22T06:42:35.651Z,2.95
2022-12-22T06:45:02.790Z,3.67
2022-12-22T06:47:29.925Z,1.95
2022-12-22T06:49:57.032Z,2.28
2022-12-22T06:52:24.308Z,2.20
2022-12-22T06:54:51.452Z,1.33
2022-12-22T06:57:18.695Z,2.17
2022-12-22T06:59:45.894Z,1.83
2022-12-22T07:02:13.363Z,2.00
2022-12-22T07:04:40.629Z,2.65
2022-12-22T07:07:07.773Z,1.75
2022-12-22T07:09:34.997Z,1.90
2022-12-22T07:12:02.219Z,2.53
2022-12-22T07:14:29.332Z,1.38
2022-12-22T07:16:56.490Z,3.03
2022-12-22T07:19:23.617Z,5.63
2022-12-22T07:21:51.452Z,1.00
2022-12-22T07:24:23.738Z,2.67
2022-12-22T07:26:51.522Z,2.75
2022-12-22T07:29:18.803Z,0.70
2022-12-22T07:31:46.044Z,2.30
2022-12-22T07:34:13.424Z,1.85
2022-12-22T07:36:40.640Z,1.30
2022-12-22T07:39:07.885Z,3.00
2022-12-22T07:41:53.836Z,2.58
2022-12-22T07:44:20.987Z,3.22
2022-12-22T07:46:48.252Z,2.25
2022-12-22T07:49:34.037Z,2.13
2022-12-22T07:52:01.288Z,2.78
2022-12-22T07:54:28.948Z,2.95
2022-12-22T07:56:56.297Z,2.20
2022-12-22T07:59:23.664Z,3.00
2022-12-22T08:01:50.971Z,2.50
2022-12-22T08:04:18.306Z,3.17
2022-12-22T08:06:45.539Z,2.10
2022-12-22T08:09:17.270Z,2.20
2022-12-22T08:11:44.549Z,2.47
2022-12-22T08:14:11.700Z,3.70
2022-12-22T08:16:38.964Z,2.90
2022-12-22T08:19:06.152Z,2.67
2022-12-22T08:21:33.286Z,1.80
2022-12-22T08:24:00.425Z,2.70
2022-12-22T08:26:39.105Z,1.48
2022-12-22T08:29:09.361Z,2.03
2022-12-22T08:31:36.708Z,1.75
2022-12-22T08:34:05.461Z,4.25
2022-12-22T08:36:34.721Z,2.58
2022-12-22T08:39:02.264Z,2.22
2022-12-22T08:41:48.991Z,1.67
2022-12-22T08:44:16.358Z,3.55
2022-12-22T08:46:43.549Z,3.05
2022-12-22T08:49:10.739Z,2.08
2022-12-22T08:51:37.910Z,2.35
2022-12-22T08:54:06.584Z,2.80
2022-12-22T08:56:34.081Z,4.80
2022-12-22T08:59:05.213Z,3.17
2022-12-22T09:01:33.417Z,3.67
2022-12-22T09:04:00.723Z,2.45
2022-12-22T09:06:33.193Z,2.15
2022-12-22T09:09:05.074Z,1.60
2022-12-22T09:11:32.244Z,1.52
2022-12-22T09:14:00.427Z,2.00
2022-12-22T09:16:28.819Z,4.15
2022-12-22T09:18:56.101Z,1.10
2022-12-22T09:21:24.139Z,4.65
2022-12-22T09:23:51.547Z,4.75
2022-12-22T09:26:21.495Z,2.13
2022-12-22T09:28:50.747Z,2.60
2022-12-22T09:31:18.853Z,3.03
2022-12-22T09:33:46.115Z,3.58
2022-12-22T09:36:15.208Z,2.47
2022-12-22T09:38:42.555Z,4.72
2022-12-22T09:41:28.440Z,2.10
2022-12-22T09:43:56.778Z,1.42
2022-12-22T09:46:28.435Z,1.75
2022-12-22T09:48:56.091Z,3.25
2022-12-22T09:51:27.031Z,2.15
2022-12-22T09:54:01.879Z,3.65
2022-12-22T09:56:29.739Z,1.83
2022-12-22T09:58:58.251Z,2.85
2022-12-22T10:01:28.739Z,2.88
2022-12-22T10:04:01.369Z,3.88
2022-12-22T10:06:44.386Z,2.90
2022-12-22T10:09:36.190Z,2.03
2022-12-22T10:12:03.161Z,1.67
2022-12-22T10:14:42.040Z,2.28
2022-12-22T10:17:16.563Z,3.80
2022-12-22T10:19:44.186Z,2.53
2022-12-22T10:22:31.297Z,2.67
2022-12-22T10:25:01.098Z,2.00
2022-12-22T10:27:30.315Z,2.08
2022-12-22T10:30:16.278Z,3.97
2022-12-22T10:32:43.502Z,1.90
2022-12-22T10:35:10.661Z,1.83
2022-12-22T10:37:39.075Z,2.63
2022-12-22T10:40:13.871Z,2.25
2022-12-22T10:42:45.001Z,2.20
2022-12-22T10:45:17.617Z,4.55
2022-12-22T10:47:47.920Z,8.27
2022-12-22T10:50:15.306Z,3.38
2022-12-22T10:52:49.854Z,2.90
2022-12-22T10:55:17.022Z,3.80
2022-12-22T10:57:44.357Z,5.05
2022-12-22T11:00:26.856Z,2.80
2022-12-22T11:02:55.386Z,2.60
2022-12-22T11:05:22.693Z,2.72
2022-12-22T11:07:50.157Z,4.47
2022-12-22T11:10:19.509Z,3.50
2022-12-22T11:12:54.181Z,3.65
2022-12-22T11:15:42.832Z,3.47
2022-12-22T11:18:09.924Z,3.00
2022-12-22T11:20:55.831Z,5.35
2022-12-22T11:23:22.982Z,2.88
2022-12-22T11:26:04.723Z,3.00
2022-12-22T11:28:44.612Z,7.30
2022-12-22T11:31:30.478Z,5.03
2022-12-22T11:33:57.743Z,4.38
2022-12-22T11:36:31.021Z,6.15
2022-12-22T11:39:02.134Z,4.72
2022-12-22T11:41:29.283Z,4.72
2022-12-22T11:44:10.216Z,5.93
2022-12-22T11:46:46.272Z,5.72
2022-12-22T11:49:32.442Z,2.72
2022-12-22T11:52:02.576Z,3.67
2022-12-22T11:54:47.954Z,2.33
2022-12-22T11:57:19.167Z,5.40
2022-12-22T12:00:18.814Z,8.35
2022-12-22T12:03:05.184Z,2.50
2022-12-22T12:05:51.091Z,7.55
2022-12-22T12:08:31.370Z,2.83
2022-12-22T12:11:21.466Z,4.10
2022-12-22T12:14:11.760Z,4.43
2022-12-22T12:16:49.981Z,3.22
2022-12-22T12:19:32.474Z,5.55
2022-12-22T12:22:00.961Z,4.30
2022-12-22T12:24:40.493Z,2.67
2022-12-22T12:27:07.629Z,4.88
2022-12-22T12:30:13.456Z,5.90
2022-12-22T12:32:52.243Z,6.13
2022-12-22T12:35:22.392Z,5.47
2022-12-22T12:37:51.390Z,3.53
2022-12-22T12:40:48.004Z,7.30
2022-12-22T12:43:16.717Z,4.07
2022-12-22T12:45:45.379Z,4.82
2022-12-22T12:48:24.713Z,6.05
2022-12-22T12:50:52.500Z,6.32
2022-12-22T12:53:20.101Z,5.95
2022-12-22T12:55:47.284Z,5.22
2022-12-22T12:58:34.512Z,7.85
2022-12-22T13:01:25.041Z,2.40
2022-12-22T13:04:03.298Z,5.50
2022-12-22T13:06:51.241Z,4.28
2022-12-22T13:12:31.840Z,2.65
2022-12-22T13:15:01.207Z,3.78
2022-12-22T13:17:42.312Z,8.38
2022-12-22T13:20:15.847Z,4.47
2022-12-22T13:22:44.021Z,5.63
2022-12-22T13:25:17.620Z,5.03
2022-12-22T13:27:45.259Z,7.93
2022-12-22T13:30:16.880Z,4.55
2022-12-22T13:32:45.690Z,7.35
2022-12-22T13:35:38.603Z,5.05
2022-12-22T13:38:06.058Z,5.88
2022-12-22T13:40:40.771Z,5.82
2022-12-22T13:43:13.683Z,5.10
2022-12-22T13:45:42.849Z,3.25
2022-12-22T13:48:29.061Z,6.60
2022-12-22T13:50:58.021Z,9.07
2022-12-22T13:56:40.451Z,6.15
2022-12-22T13:59:17.897Z,7.00
2022-12-22T14:01:51.774Z,7.95
2022-12-22T14:04:19.082Z,7.28
2022-12-22T14:06:46.228Z,6.68
2022-12-22T14:09:20.686Z,6.70
2022-12-22T14:11:53.851Z,6.82
2022-12-22T14:14:29.378Z,7.32
2022-12-22T14:16:57.869Z,7.70
2022-12-22T14:19:25.735Z,8.15
2022-12-22T14:22:05.174Z,7.53
2022-12-22T14:24:38.404Z,5.03
2022-12-22T14:27:06.867Z,8.55
2022-12-22T14:29:34.143Z,6.63
2022-12-22T14:32:03.671Z,10.63
2022-12-22T14:34:31.936Z,11.00
2022-12-22T14:37:00.692Z,5.68
2022-12-22T14:39:32.304Z,11.40
2022-12-22T14:42:00.590Z,8.43
2022-12-22T14:44:44.072Z,9.15
2022-12-22T14:47:20.523Z,7.32
2022-12-22T14:49:49.966Z,9.35
2022-12-22T14:52:22.273Z,8.40
2022-12-22T14:54:50.959Z,9.20
2022-12-22T14:57:21.776Z,9.10
2022-12-22T14:59:59.825Z,8.88
2022-12-22T15:02:36.594Z,10.40
2022-12-22T15:05:08.909Z,6.82
2022-12-22T15:10:52.228Z,9.57
2022-12-22T15:15:47.841Z,5.60
2022-12-22T15:18:16.116Z,8.20
2022-12-22T15:20:43.317Z,8.88
2022-12-22T15:23:12.390Z,8.07
2022-12-22T15:25:39.558Z,9.15
2022-12-22T15:28:06.701Z,8.85
2022-12-22T15:30:33.919Z,10.88
2022-12-22T15:33:01.180Z,7.07
2022-12-22T15:35:32.414Z,9.13
2022-12-22T15:38:00.262Z,7.28
2022-12-22T15:40:27.961Z,7.22
2022-12-22T15:42:55.378Z,8.70
2022-12-22T15:45:22.945Z,10.02
2022-12-22T15:47:52.089Z,7.95
2022-12-22T15:50:38.677Z,9.07
2022-12-22T15:53:07.045Z,5.55
2022-12-22T15:55:35.088Z,10.13
2022-12-22T15:58:02.241Z,9.30
2022-12-22T16:00:29.538Z,6.90
2022-12-22T16:02:56.917Z,8.98
2022-12-22T16:05:24.222Z,9.20
2022-12-22T16:07:51.382Z,6.10
2022-12-22T16:10:23.780Z,6.82
2022-12-22T16:12:54.036Z,4.32
2022-12-22T16:15:28.477Z,6.95
2022-12-22T16:17:55.775Z,3.78
2022-12-22T16:20:23.063Z,6.28
2022-12-22T16:22:50.469Z,3.95
2022-12-22T16:25:19.418Z,5.70
2022-12-22T16:27:52.381Z,7.93
2022-12-22T16:30:21.085Z,5.55
2022-12-22T16:32:48.230Z,8.85
2022-12-22T16:35:19.993Z,5.53
2022-12-22T16:37:51.112Z,5.80
2022-12-22T16:40:19.539Z,5.32
2022-12-22T16:45:44.845Z,6.97
2022-12-22T16:48:26.553Z,6.72
2022-12-22T16:50:53.699Z,6.68
2022-12-22T16:53:20.826Z,9.57
2022-12-22T16:55:48.200Z,6.82
2022-12-22T16:58:15.399Z,8.13
2022-12-22T17:00:44.623Z,6.28
2022-12-22T17:03:13.963Z,5.65
2022-12-22T17:05:44.964Z,7.50
2022-12-22T17:08:32.720Z,6.10
2022-12-22T17:11:08.018Z,9.98
2022-12-22T17:13:37.767Z,4.90
2022-12-22T17:16:05.618Z,7.97
2022-12-22T17:18:38.111Z,5.47
2022-12-22T17:21:05.780Z,6.53
2022-12-22T17:23:34.500Z,7.00
2022-12-22T17:26:04.926Z,6.18
2022-12-22T17:28:32.946Z,6.15
2022-12-22T17:31:00.314Z,7.00
2022-12-22T17:33:27.629Z,15.57
2022-12-22T17:35:55.305Z,9.00
2022-12-22T17:38:25.069Z,12.38
2022-12-22T17:40:52.668Z,5.40
2022-12-22T17:43:20.605Z,6.68
2022-12-22T17:45:48.496Z,7.90
2022-12-22T17:48:16.369Z,5.07
2022-12-22T17:50:44.500Z,4.88
2022-12-22T17:53:14.924Z,10.75
2022-12-22T17:58:29.448Z,6.13
2022-12-22T18:00:56.601Z,6.03
2022-12-22T18:03:23.903Z,7.30
2022-12-22T18:05:51.151Z,6.47
2022-12-22T18:08:20.260Z,7.75
2022-12-22T18:10:48.381Z,13.60
2022-12-22T18:13:24.414Z,7.13
2022-12-22T18:15:51.905Z,4.35
2022-12-22T18:18:20.846Z,6.03
2022-12-22T18:21:05.788Z,4.68
2022-12-22T18:23:35.487Z,5.85
2022-12-22T18:26:02.676Z,6.43
2022-12-22T18:28:30.052Z,8.27
2022-12-22T18:30:57.202Z,6.45
2022-12-22T18:33:24.327Z,4.97
2022-12-22T18:35:51.550Z,11.63
2022-12-22T18:38:36.944Z,8.70
2022-12-22T18:43:31.369Z,5.82
2022-12-22T18:45:58.559Z,7.45
2022-12-22T18:48:25.848Z,7.28
2022-12-22T18:50:53.149Z,10.07
2022-12-22T18:53:23.653Z,11.23
2022-12-22T18:55:51.023Z,5.65
2022-12-22T18:58:18.208Z,6.90
2022-12-22T19:00:45.530Z,8.15
2022-12-22T19:03:17.529Z,9.60
2022-12-22T19:05:45.513Z,5.50
2022-12-22T19:08:16.997Z,7.80
2022-12-22T19:10:46.004Z,5.57
2022-12-22T19:13:33.055Z,8.27
2022-12-22T19:16:00.634Z,6.38
2022-12-22T19:18:28.525Z,4.30
2022-12-22T19:20:56.236Z,4.28
2022-12-22T19:23:24.287Z,8.85
2022-12-22T19:25:53.366Z,7.75
2022-12-22T19:28:33.863Z,4.25
2022-12-22T19:31:01.163Z,6.40
2022-12-22T19:33:36.173Z,6.18
2022-12-22T19:38:30.780Z,8.60
2022-12-22T19:41:00.362Z,5.20
2022-12-22T19:43:27.849Z,5.85
2022-12-22T19:45:55.527Z,6.93
2022-12-22T19:48:24.585Z,5.28
2022-12-22T19:50:52.664Z,4.13
2022-12-22T19:53:20.404Z,5.32
2022-12-22T19:55:50.883Z,7.20
2022-12-22T19:58:34.589Z,5.13
2022-12-22T20:01:01.787Z,5.47
2022-12-22T20:03:29.238Z,6.50
2022-12-22T20:05:56.526Z,5.07
2022-12-22T20:08:23.704Z,6.88
2022-12-22T20:10:58.128Z,8.90
2022-12-22T20:13:26.921Z,7.00
2022-12-22T20:15:54.097Z,3.95
2022-12-22T20:18:23.121Z,6.80
2022-12-22T20:20:57.644Z,4.72
2022-12-22T20:23:25.576Z,4.88
2022-12-22T20:25:59.918Z,7.28
2022-12-22T20:28:28.365Z,6.70
2022-12-22T20:30:56.233Z,2.67
2022-12-22T20:33:24.710Z,5.45
2022-12-22T20:35:52.573Z,5.97
2022-12-22T20:38:19.735Z,4.10
2022-12-22T20:40:47.420Z,2.67
2022-12-22T20:43:16.435Z,3.42
2022-12-22T20:45:44.975Z,4.75
2022-12-22T20:48:18.493Z,4.65
2022-12-22T20:50:45.663Z,5.18
2022-12-22T20:53:16.834Z,2.25
2022-12-22T20:55:44.278Z,5.85
2022-12-22T20:58:15.576Z,6.78
2022-12-22T21:00:42.774Z,8.65
2022-12-22T21:03:11.122Z,4.70
2022-12-22T21:05:38.395Z,4.43
2022-12-22T21:08:07.787Z,4.55
2022-12-22T21:10:34.911Z,3.78
2022-12-22T21:13:02.341Z,2.60
2022-12-22T21:15:29.557Z,4.07
2022-12-22T21:17:58.880Z,6.13
2022-12-22T21:20:27.240Z,5.05
2022-12-22T21:22:54.549Z,4.78
2022-12-22T21:25:21.742Z,6.85
2022-12-22T21:27:49.838Z,9.45
2022-12-22T21:30:24.389Z,2.83
2022-12-22T21:32:52.239Z,4.72
2022-12-22T21:35:21.239Z,1.98
2022-12-22T21:37:49.416Z,3.28
2022-12-22T21:40:17.844Z,5.30
2022-12-22T21:42:44.987Z,5.22
2022-12-22T21:45:13.052Z,2.35
2022-12-22T21:47:40.334Z,3.28
2022-12-22T21:50:07.815Z,4.35
2022-12-22T21:52:34.994Z,2.78
2022-12-22T21:55:05.198Z,1.45
2022-12-22T21:57:32.453Z,1.92
2022-12-22T21:59:59.599Z,5.97
2022-12-22T22:02:26.903Z,3.15
2022-12-22T22:04:55.382Z,2.80
2022-12-22T22:07:22.794Z,2.70
2022-12-22T22:09:49.933Z,2.47
2022-12-22T22:12:37.179Z,3.22
2022-12-22T22:15:05.505Z,2.22
2022-12-22T22:17:32.670Z,2.53
2022-12-22T22:19:59.895Z,4.32
2022-12-22T22:22:27.061Z,2.10
2022-12-22T22:24:54.213Z,5.20
2022-12-22T22:27:21.445Z,4.18
2022-12-22T22:29:48.588Z,6.95
2022-12-22T22:32:16.723Z,1.40
2022-12-22T22:34:43.946Z,2.28
2022-12-22T22:37:11.069Z,3.25
2022-12-22T22:39:38.299Z,3.10
2022-12-22T22:42:05.456Z,3.50
2022-12-22T22:44:32.609Z,2.80
2022-12-22T22:47:00.058Z,6.90
2022-12-22T22:49:28.785Z,3.67
2022-12-22T22:51:56.146Z,4.40
2022-12-22T22:54:23.386Z,3.08
2022-12-22T22:56:50.706Z,3.65
2022-12-22T22:59:18.747Z,5.05
2022-12-22T23:01:45.999Z,1.85
2022-12-22T23:04:13.324Z,3.53
2022-12-22T23:06:43.914Z,1.67
2022-12-22T23:09:11.066Z,2.95
2022-12-22T23:11:38.535Z,2.15
2022-12-22T23:14:05.966Z,1.67
2022-12-22T23:16:38.010Z,2.33
2022-12-22T23:19:05.936Z,2.95
2022-12-22T23:21:33.574Z,2.28
2022-12-22T23:24:00.752Z,2.15
2022-12-22T23:26:27.996Z,1.00
2022-12-22T23:29:01.066Z,3.78
2022-12-22T23:31:30.092Z,1.80
2022-12-22T23:33:57.534Z,4.00
2022-12-22T23:36:24.724Z,4.75
2022-12-22T23:38:52.036Z,3.70
2022-12-22T23:41:19.416Z,3.25
2022-12-22T23:43:46.738Z,4.15
2022-12-22T23:46:15.793Z,2.70
2022-12-22T23:48:43.476Z,3.13
2022-12-22T23:51:11.462Z,1.42
2022-12-22T23:53:38.969Z,3.53
2022-12-22T23:56:06.466Z,4.38
2022-12-22T23:58:33.580Z,3.95
